Time;durP1;ratioP1;P1;durP2;ratioP2;P2;SDS_P1;SDS_P2;PMS_P1;PMS_P2;Temp;Humidity;BMP_temperature;BMP_pressure;BME280_temperature;BME280_humidity;BME280_pressure;Samples;Min_cycle;Max_cycle;Signal;HPM_P1;HPM_P2
2023/12/10 00:01:33;;;;;;;10.27;2.95;;;;;;;23.67;34.44;100639.84;4242109;27;19971;-47
2023/12/10 00:03:35;;;;;;;;;;;;;;;23.67;34.40;100635.34;4230920;28;20123;-49
2023/12/10 00:05:36;;;;;;;7.80;2.58;;;;;;;23.64;34.41;100643.66;4234485;27;19920;-46
2023/12/10 00:07:38;;;;;;;9.40;2.60;;;;;;;23.65;34.21;100642.66;4239614;27;20154;-49
2023/12/10 00:09:39;;;;;;;8.15;2.47;;;;;;;23.65;34.54;100649.88;4247375;27;20074;-48
2023/12/10 00:11:41;;;;;;;7.97;2.53;;;;;;;23.64;34.46;100649.03;4234168;27;20131;-51
2023/12/10 00:13:43;;;;;;;7.80;2.30;;;;;;;23.63;34.64;100655.38;4247126;27;20049;-48
2023/12/10 00:15:47;;;;;;;7.85;2.63;;;;;;;23.60;34.55;100655.69;4243415;27;20043;-49
2023/12/10 00:17:49;;;;;;;6.35;2.42;;;;;;;23.66;34.28;100656.94;4238415;27;20043;-49
2023/12/10 00:19:51;;;;;;;;;;;;;;;23.67;34.48;100666.69;4247711;27;20472;-49
2023/12/10 00:21:53;;;;;;;9.13;2.70;;;;;;;23.66;34.68;100662.31;4235652;27;19924;-50
2023/12/10 00:23:55;;;;;;;9.52;2.63;;;;;;;23.69;34.26;100670.09;4246337;27;20051;-51
2023/12/10 00:25:57;;;;;;;8.00;2.20;;;;;;;23.71;34.29;100670.81;4244712;27;20043;-48
2023/12/10 00:27:58;;;;;;;10.68;3.00;;;;;;;23.69;34.49;100667.41;4236476;27;20133;-51
2023/12/10 00:30:00;;;;;;;7.63;2.40;;;;;;;23.69;34.24;100678.13;4247373;27;20053;-48
2023/12/10 00:32:02;;;;;;;;;;;;;;;23.64;34.12;100667.81;4237584;27;20087;-47
2023/12/10 00:34:04;;;;;;;9.52;2.50;;;;;;;23.59;34.65;100660.19;4244352;27;19923;-50
2023/12/10 00:36:07;;;;;;;8.68;2.53;;;;;;;23.64;34.46;100669.66;4246059;27;20048;-48
2023/12/10 00:38:09;;;;;;;8.65;2.33;;;;;;;23.64;34.58;100662.44;4235776;27;20501;-47
2023/12/10 00:40:11;;;;;;;8.20;2.72;;;;;;;23.66;34.46;100670.34;4246833;27;20505;-49
2023/12/10 00:42:12;;;;;;;8.50;2.42;;;;;;;23.64;34.30;100675.03;4238687;27;20494;-48
2023/12/10 00:44:14;;;;;;;8.65;2.45;;;;;;;23.67;34.51;100680.97;4242801;27;20039;-48
2023/12/10 00:46:16;;;;;;;;;;;;;;;23.68;34.14;100684.50;4246019;27;20051;-49
2023/12/10 00:48:17;;;;;;;8.70;2.40;;;;;;;23.69;34.10;100691.56;4235382;27;19926;-49
2023/12/10 00:50:19;;;;;;;9.00;2.65;;;;;;;23.68;34.31;100687.19;4246980;27;20054;-51
2023/12/10 00:52:21;;;;;;;8.93;2.65;;;;;;;23.67;34.33;100686.34;4240164;27;20047;-48
2023/12/10 00:54:22;;;;;;;10.00;2.70;;;;;;;23.62;34.12;100688.59;4240226;27;20042;-47
2023/12/10 00:56:24;;;;;;;8.77;2.92;;;;;;;23.65;34.22;100703.59;4246228;27;20099;-49
2023/12/10 00:58:25;;;;;;;9.13;2.60;;;;;;;23.64;34.58;100716.16;4235207;27;20050;-51
2023/12/10 01:00:27;;;;;;;7.72;2.80;;;;;;;23.65;34.21;100709.78;4246758;27;20061;-49
2023/12/10 01:02:29;;;;;;;9.38;2.85;;;;;;;23.67;34.45;100707.81;4242214;27;20043;-48
2023/12/10 01:04:31;;;;;;;6.55;2.42;;;;;;;23.68;34.14;100716.72;4238875;28;20039;-49
2023/12/10 01:06:32;;;;;;;;;;;;;;;23.69;34.25;100719.25;4247298;28;20126;-48
2023/12/10 01:08:34;;;;;;;8.30;2.90;;;;;;;23.66;33.96;100724.06;4241768;27;20049;-46
2023/12/10 01:10:36;;;;;;;7.95;2.58;;;;;;;23.68;34.25;100741.75;4228502;28;20488;-51
2023/12/10 01:12:38;;;;;;;;;;;;;;;23.67;34.02;100734.69;4231947;28;20050;-46
2023/12/10 01:14:40;;;;;;;9.57;2.90;;;;;;;23.64;34.12;100742.16;4239313;27;19920;-51
2023/12/10 01:16:41;;;;;;;10.27;3.17;;;;;;;23.65;34.46;100751.91;4229812;28;20044;-49
2023/12/10 01:18:44;;;;;;;9.02;2.80;;;;;;;23.63;34.24;100753.88;4240484;28;20454;-49
2023/12/10 01:20:45;;;;;;;8.48;3.08;;;;;;;23.64;34.52;100760.97;4231487;27;20047;-51
2023/12/10 01:22:47;;;;;;;8.68;2.83;;;;;;;23.66;34.46;100761.63;4230864;28;20085;-51
2023/12/10 01:24:49;;;;;;;10.38;3.22;;;;;;;23.67;34.25;100772.28;4240821;27;20075;-50
2023/12/10 01:26:50;;;;;;;;;;;;;;;23.69;34.29;100766.75;4230244;28;20551;-51
2023/12/10 01:28:52;;;;;;;8.82;2.80;;;;;;;23.69;34.49;100781.00;4238446;28;19919;-49
2023/12/10 01:30:53;;;;;;;;;;;;;;;23.71;34.43;100779.03;4232351;28;20050;-48
2023/12/10 01:32:58;;;;;;;7.15;2.63;;;;;;;23.69;34.20;100766.75;4230828;28;19965;-48
2023/12/10 01:35:00;;;;;;;7.88;2.95;;;;;;;23.68;34.39;100792.75;4241106;28;20096;-49
2023/12/10 01:37:03;;;;;;;8.27;2.67;;;;;;;23.68;34.29;100786.53;4229555;28;20043;-50
2023/12/10 01:39:04;;;;;;;8.98;2.85;;;;;;;23.65;34.38;100793.03;4237657;28;20485;-50
2023/12/10 01:41:06;;;;;;;9.98;2.83;;;;;;;23.64;33.93;100807.44;4234405;28;20421;-47
2023/12/10 01:43:09;;;;;;;7.05;2.40;;;;;;;23.64;34.15;100794.00;4230947;28;20043;-50
2023/12/10 01:45:11;;;;;;;7.32;2.30;;;;;;;23.64;34.40;100804.75;4240921;28;20094;-51
2023/12/10 01:47:14;;;;;;;9.07;3.00;;;;;;;23.65;34.14;100786.81;4229445;28;20046;-49
2023/12/10 01:49:17;;;;;;;8.98;2.88;;;;;;;23.67;33.90;100798.25;4235992;28;20461;-50
2023/12/10 01:51:19;;;;;;;8.90;2.67;;;;;;;23.70;34.17;100806.88;4235299;27;20467;-51
2023/12/10 01:53:22;;;;;;;7.78;2.80;;;;;;;23.71;34.00;100800.53;4230090;28;20093;-46
2023/12/10 01:55:25;;;;;;;9.15;2.90;;;;;;;23.71;33.82;100807.75;4240998;28;20043;-47
2023/12/10 01:57:27;;;;;;;8.95;2.60;;;;;;;23.68;33.78;100786.53;4229803;28;20051;-47
2023/12/10 01:59:29;;;;;;;10.27;2.45;;;;;;;23.65;34.00;100779.59;4234999;28;20079;-51
2023/12/10 02:01:32;;;;;;;7.82;3.00;;;;;;;23.67;34.34;100787.50;4236524;27;20132;-50
2023/12/10 02:03:34;;;;;;;9.02;2.67;;;;;;;23.66;34.32;100785.81;4229821;28;20122;-49
2023/12/10 02:05:36;;;;;;;12.07;3.40;;;;;;;23.63;34.14;100789.63;4235583;27;20048;-49
2023/12/10 02:07:41;;;;;;;;;;;;;;;23.65;33.97;100794.88;4249455;27;20051;-48
2023/12/10 02:09:43;;;;;;;8.75;2.83;;;;;;;23.65;34.18;100781.44;4244302;27;19919;-48
2023/12/10 02:11:45;;;;;;;;;;;;;;;23.67;33.92;100790.19;4241907;27;20058;-51
2023/12/10 02:13:47;;;;;;;10.38;2.72;;;;;;;23.68;34.06;100808.88;4248343;27;20013;-49
2023/12/10 02:15:48;;;;;;;9.25;2.75;;;;;;;23.72;33.59;100798.69;4236765;27;20508;-48
2023/12/10 02:17:50;;;;;;;;;;;;;;;23.70;33.83;100808.72;4249589;27;20043;-47
2023/12/10 02:19:52;;;;;;;8.35;2.20;;;;;;;23.68;34.25;100819.63;4246019;27;19923;-48
2023/12/10 02:21:56;;;;;;;8.98;2.50;;;;;;;23.69;34.07;100801.66;4239718;27;20410;-50
2023/12/10 02:24:05;;;;;;;7.47;2.63;;;;;;;23.64;33.97;100793.19;4249600;27;20049;-50
2023/12/10 02:26:07;;;;;;;8.57;2.50;;;;;;;23.65;33.85;100811.00;4236642;27;20079;-48
2023/12/10 02:28:09;;;;;;;9.02;2.50;;;;;;;23.64;33.77;100815.50;4248728;27;20047;-47
2023/12/10 02:30:11;;;;;;;7.97;2.30;;;;;;;23.67;34.34;100825.97;4246055;27;20043;-45
2023/12/10 02:32:13;;;;;;;;;;;;;;;23.66;33.98;100818.03;4239334;27;20050;-46
2023/12/10 02:34:14;;;;;;;8.02;2.53;;;;;;;23.64;33.85;100831.59;4249039;27;20018;-46
2023/12/10 02:36:17;;;;;;;8.45;2.63;;;;;;;23.70;33.97;100833.72;4237879;27;20051;-49
2023/12/10 02:38:21;;;;;;;9.45;2.47;;;;;;;23.73;33.89;100825.41;4247122;27;20100;-47
2023/12/10 02:40:23;;;;;;;6.93;2.20;;;;;;;23.72;34.06;100836.28;4247190;27;20114;-48
2023/12/10 02:42:24;;;;;;;;;;;;;;;23.73;34.04;100829.91;4238295;27;20066;-45
2023/12/10 02:44:26;;;;;;;8.82;2.83;;;;;;;23.70;33.89;100836.41;4249244;27;20342;-44
2023/12/10 02:46:28;;;;;;;7.97;2.38;;;;;;;23.70;34.30;100836.41;4239419;27;20043;-45
2023/12/10 02:48:30;;;;;;;7.97;2.63;;;;;;;23.70;34.12;100838.25;4245680;27;20073;-48
2023/12/10 02:50:31;;;;;;;;;;;;;;;23.68;34.21;100838.41;4247458;27;20047;-46
2023/12/10 02:52:37;;;;;;;7.70;2.40;;;;;;;23.67;33.84;100835.84;4237401;27;19923;-46
2023/12/10 02:54:38;;;;;;;6.65;2.22;;;;;;;23.69;34.44;100842.78;4248780;27;20047;-47
2023/12/10 02:56:40;;;;;;;;;;;;;;;23.70;34.00;100844.47;4240935;27;20100;-47
2023/12/10 02:58:41;;;;;;;8.45;2.55;;;;;;;23.71;34.09;100839.97;4244057;27;19965;-45
2023/12/10 03:00:43;;;;;;;9.15;2.60;;;;;;;23.76;33.79;100846.59;4247103;27;20078;-46
2023/12/10 03:02:45;;;;;;;8.73;2.53;;;;;;;23.79;33.85;100853.53;4236981;27;20050;-46
2023/12/10 03:04:47;;;;;;;;;;;;;;;23.77;33.97;100850.16;4248631;27;20085;-45
2023/12/10 03:06:49;;;;;;;7.85;2.35;;;;;;;23.75;33.95;100860.19;4243973;27;19978;-47
2023/12/10 03:08:50;;;;;;;9.48;2.47;;;;;;;23.75;33.94;100877.13;4237616;27;20456;-47
2023/12/10 03:10:57;;;;;;;7.55;2.42;;;;;;;23.72;34.07;100877.41;4232710;27;20555;-48
2023/12/10 03:12:58;;;;;;;7.55;2.22;;;;;;;23.74;34.08;100882.66;4242858;27;20047;-49
2023/12/10 03:15:00;;;;;;;;;;;;;;;23.73;33.86;100889.00;4231997;28;20051;-48
2023/12/10 03:17:02;;;;;;;7.13;2.30;;;;;;;23.73;34.26;100883.63;4236556;27;19927;-51
2023/12/10 03:19:04;;;;;;;;;;;;;;;23.75;33.83;100887.88;4238710;27;20046;-50
2023/12/10 03:21:06;;;;;;;7.80;2.35;;;;;;;23.68;34.04;100873.31;4231481;28;20085;-46
2023/12/10 03:23:12;;;;;;;8.13;2.40;;;;;;;23.81;33.68;100878.44;4236028;27;20048;-47
2023/12/10 03:25:18;;;;;;;7.70;2.30;;;;;;;23.84;33.94;100888.91;4248444;27;20391;-46
2023/12/10 03:27:23;;;;;;;6.82;2.20;;;;;;;23.84;33.84;100896.97;4242444;27;20035;-50
2023/12/10 03:29:25;;;;;;;;;;;;;;;23.82;33.77;100896.25;4241427;27;20080;-46
2023/12/10 03:31:26;;;;;;;7.60;2.15;;;;;;;23.81;33.78;100897.22;4248058;27;19919;-50
2023/12/10 03:33:28;;;;;;;8.30;2.42;;;;;;;23.81;34.02;100901.75;4234976;27;20047;-47
2023/12/10 03:35:35;;;;;;;7.53;2.30;;;;;;;23.80;33.91;100924.22;4248336;27;20134;-49
2023/12/10 03:37:36;;;;;;;6.30;1.90;;;;;;;23.79;33.94;100911.78;4242333;27;20106;-50
2023/12/10 03:39:43;;;;;;;8.15;2.38;;;;;;;23.80;33.92;100917.00;4240492;27;20049;-49
2023/12/10 03:41:44;;;;;;;8.95;2.45;;;;;;;23.82;33.85;100927.63;4248226;27;20051;-50
2023/12/10 03:43:46;;;;;;;7.45;2.15;;;;;;;23.83;33.82;100927.50;4243546;27;20046;-49
2023/12/10 03:45:48;;;;;;;;;;;;;;;23.85;34.04;100938.09;4229987;28;20131;-49
2023/12/10 03:47:49;;;;;;;8.65;2.35;;;;;;;23.84;33.95;100957.88;4233854;27;19949;-48
2023/12/10 03:49:51;;;;;;;7.97;2.05;;;;;;;23.85;33.95;100946.16;4240085;27;20035;-47
2023/12/10 03:51:58;;;;;;;8.02;2.35;;;;;;;23.85;33.76;100960.44;4229580;28;20131;-50
2023/12/10 03:54:00;;;;;;;;;;;;;;;23.84;34.00;100956.06;4242906;27;20039;-48
2023/12/10 03:56:01;;;;;;;6.40;2.30;;;;;;;23.79;34.03;100952.06;4231699;27;19920;-48
2023/12/10 03:58:03;;;;;;;;;;;;;;;23.80;34.12;100951.09;4233468;27;20070;-49
2023/12/10 04:00:06;;;;;;;8.00;2.40;;;;;;;23.77;33.68;100969.16;4241018;27;19920;-50
2023/12/10 04:02:13;;;;;;;7.00;2.25;;;;;;;23.80;33.63;100957.28;4230503;28;20471;-48
2023/12/10 04:04:14;;;;;;;;;;;;;;;23.82;34.05;100951.81;4241808;27;20039;-49
2023/12/10 04:06:16;;;;;;;7.05;2.20;;;;;;;23.83;33.83;100950.78;4247778;27;19964;-50
2023/12/10 04:08:18;;;;;;;7.57;2.13;;;;;;;23.86;34.04;100951.38;4245825;27;20108;-50
2023/12/10 04:10:20;;;;;;;8.23;2.35;;;;;;;23.88;33.75;100956.63;4236414;27;20104;-49
2023/12/10 04:12:26;;;;;;;8.02;2.30;;;;;;;23.87;33.89;100961.13;4247449;27;20047;-47
2023/12/10 04:14:29;;;;;;;7.00;2.45;;;;;;;23.89;33.67;100975.28;4237130;27;20051;-46
2023/12/10 04:16:30;;;;;;;7.53;2.22;;;;;;;23.90;33.67;100962.69;4244612;27;20417;-50
2023/12/10 04:18:32;;;;;;;9.18;2.45;;;;;;;23.88;33.95;100967.38;4245757;27;20046;-48
2023/12/10 04:20:34;;;;;;;7.28;2.28;;;;;;;23.86;33.73;100962.13;4236029;27;20071;-47
2023/12/10 04:22:36;;;;;;;7.40;2.20;;;;;;;23.85;33.76;100944.34;4247364;27;20051;-50
2023/12/10 04:24:42;;;;;;;7.30;2.15;;;;;;;23.87;33.72;100954.94;4237022;27;20569;-46
2023/12/10 04:26:44;;;;;;;10.25;2.20;;;;;;;23.87;33.70;100960.31;4243837;27;20394;-45
2023/12/10 04:28:46;;;;;;;9.20;2.53;;;;;;;23.88;34.03;100960.16;4244143;27;20052;-46
2023/12/10 04:30:47;;;;;;;8.05;2.50;;;;;;;23.90;33.68;100960.00;4235802;27;20524;-46
2023/12/10 04:32:49;;;;;;;;;;;;;;;23.91;33.67;100942.91;4247373;27;20046;-45
2023/12/10 04:34:51;;;;;;;8.43;2.00;;;;;;;23.89;34.07;100969.91;4239601;27;19920;-46
2023/12/10 04:36:57;;;;;;;7.75;2.17;;;;;;;23.91;34.10;100964.41;4242413;27;20114;-45
2023/12/10 04:39:04;;;;;;;7.95;2.17;;;;;;;23.90;34.06;100954.66;4245518;27;20040;-46
2023/12/10 04:41:06;;;;;;;7.65;2.08;;;;;;;23.88;33.71;100962.84;4235420;27;20073;-46
2023/12/10 04:43:07;;;;;;;;;;;;;;;23.87;33.76;100955.78;4247710;27;20043;-47
2023/12/10 04:45:09;;;;;;;8.23;2.22;;;;;;;23.85;34.13;100960.44;4239813;27;19923;-47
2023/12/10 04:47:11;;;;;;;6.43;1.90;;;;;;;23.87;33.77;100958.44;4241096;27;20406;-47
2023/12/10 04:49:17;;;;;;;7.38;2.00;;;;;;;23.89;33.62;100952.94;4245230;27;20121;-50
2023/12/10 04:51:19;;;;;;;;;;;;;;;23.90;33.71;100933.16;4235620;27;20050;-46
2023/12/10 04:53:21;;;;;;;9.15;2.17;;;;;;;23.87;33.83;100944.19;4247038;27;20357;-46
2023/12/10 04:55:22;;;;;;;;;;;;;;;23.90;33.95;100954.66;4241257;27;20035;-46
2023/12/10 04:57:25;;;;;;;8.50;2.42;;;;;;;23.87;34.07;100950.41;4240169;27;19919;-47
2023/12/10 04:59:27;;;;;;;7.05;2.13;;;;;;;23.88;34.14;100967.38;4246029;27;20047;-48
2023/12/10 05:01:33;;;;;;;9.07;2.58;;;;;;;23.87;34.06;100960.31;4233442;28;20307;-48
2023/12/10 05:03:35;;;;;;;;;;;;;;;23.88;33.97;100967.38;4247299;27;20498;-50
2023/12/10 05:05:36;;;;;;;6.85;1.77;;;;;;;23.83;33.97;100956.16;4242514;27;20373;-46
2023/12/10 05:07:38;;;;;;;6.65;1.98;;;;;;;23.87;33.81;100960.31;4237235;27;20043;-52
2023/12/10 05:09:40;;;;;;;7.80;2.20;;;;;;;23.88;33.62;100964.69;4229898;28;20050;-49
2023/12/10 05:11:42;;;;;;;6.32;2.05;;;;;;;23.90;33.71;100970.75;4233811;27;20043;-49
2023/12/10 05:13:48;;;;;;;6.90;2.20;;;;;;;23.90;33.50;100973.44;4229954;28;20039;-51
2023/12/10 05:15:50;;;;;;;7.20;2.30;;;;;;;23.95;33.98;100976.63;4233259;28;20047;-46
2023/12/10 05:17:51;;;;;;;;;;;;;;;23.95;33.60;100982.00;4238842;27;20040;-49
2023/12/10 05:19:53;;;;;;;6.32;2.00;;;;;;;23.93;34.03;100984.81;4229976;28;19947;-48
2023/12/10 05:21:55;;;;;;;9.43;2.67;;;;;;;23.92;33.86;100985.78;4241119;28;20144;-50
2023/12/10 05:23:57;;;;;;;8.65;2.30;;;;;;;23.94;33.90;100988.34;4230568;27;20071;-47
2023/12/10 05:25:59;;;;;;;7.47;2.03;;;;;;;23.92;33.92;100983.09;4232024;28;20411;-49
2023/12/10 05:28:00;;;;;;;7.53;2.10;;;;;;;23.90;33.77;100982.38;4240039;27;20058;-51
2023/12/10 05:30:02;;;;;;;;;;;;;;;23.89;33.76;100985.16;4228703;28;20116;-48
2023/12/10 05:32:04;;;;;;;7.07;2.13;;;;;;;23.88;33.72;100991.56;4238325;28;19919;-49
2023/12/10 05:34:05;;;;;;;8.15;2.13;;;;;;;23.91;33.96;100991.28;4232085;28;20120;-52
2023/12/10 05:36:07;;;;;;;;;;;;;;;23.92;33.70;100992.97;4231430;28;20054;-49
2023/12/10 05:38:09;;;;;;;7.97;2.10;;;;;;;23.91;33.75;100994.81;4241023;28;20301;-50
2023/12/10 05:40:16;;;;;;;8.27;2.20;;;;;;;23.96;33.97;101004.34;4230601;28;20048;-51
2023/12/10 05:42:17;;;;;;;;;;;;;;;23.98;33.62;101011.25;4242294;27;20051;-50
2023/12/10 05:44:19;;;;;;;7.13;2.03;;;;;;;23.96;33.92;101013.22;4236138;27;19920;-50
2023/12/10 05:46:20;;;;;;;;;;;;;;;23.96;33.74;101015.91;4234663;27;20468;-47
2023/12/10 05:48:22;;;;;;;7.18;2.10;;;;;;;23.92;33.67;101009.97;4243949;27;19920;-47
2023/12/10 05:50:24;;;;;;;7.57;2.60;;;;;;;23.91;33.95;101005.56;4232746;28;20066;-47
2023/12/10 05:52:25;;;;;;;;;;;;;;;23.91;33.75;101013.63;4240378;27;20050;-50
2023/12/10 05:54:27;;;;;;;6.07;2.17;;;;;;;23.89;34.05;101015.59;4237987;27;19935;-50
2023/12/10 05:56:29;;;;;;;;;;;;;;;23.91;34.05;101023.50;4234438;27;20073;-48
2023/12/10 05:58:31;;;;;;;8.60;2.20;;;;;;;23.89;33.86;101012.03;4243886;27;19942;-51
2023/12/10 06:00:37;;;;;;;7.65;2.30;;;;;;;23.96;33.71;101020.44;4232835;28;20518;-47
2023/12/10 06:02:39;;;;;;;;;;;;;;;23.97;33.75;101024.84;4239161;27;20047;-50
2023/12/10 06:04:41;;;;;;;7.05;2.25;;;;;;;23.97;33.54;101025.69;4249557;27;20365;-48
2023/12/10 06:06:43;;;;;;;7.05;2.30;;;;;;;23.98;33.84;101029.22;4248636;27;20493;-50
2023/12/10 06:08:44;;;;;;;;;;;;;;;23.97;33.90;101025.69;4237535;27;20056;-49
2023/12/10 06:10:46;;;;;;;6.78;1.98;;;;;;;23.92;33.54;101025.22;4249545;27;19919;-49
2023/12/10 06:12:49;;;;;;;;;;;;;;;23.90;33.61;101019.13;4244794;27;20054;-50
2023/12/10 06:14:51;;;;;;;7.05;2.10;;;;;;;23.89;33.52;101020.09;4241587;27;20374;-48
2023/12/10 06:16:53;;;;;;;6.55;2.20;;;;;;;23.87;34.02;101033.66;4249216;27;20039;-50
2023/12/10 06:18:55;;;;;;;;;;;;;;;23.89;33.74;101023.66;4237121;27;20039;-49
2023/12/10 06:20:56;;;;;;;6.72;2.20;;;;;;;23.87;33.56;101027.44;4249191;27;19930;-51
2023/12/10 06:22:58;;;;;;;6.25;2.25;;;;;;;23.90;33.70;101030.72;4246047;27;20091;-49
2023/12/10 06:25:00;;;;;;;8.50;2.10;;;;;;;23.95;34.20;101024.13;4239781;27;20126;-47
2023/12/10 06:27:01;;;;;;;;;;;;;;;23.96;33.81;101028.50;4249488;27;20413;-46
2023/12/10 06:29:03;;;;;;;7.95;2.20;;;;;;;23.96;33.75;101025.81;4238103;27;20407;-48
2023/12/10 06:31:05;;;;;;;6.63;1.95;;;;;;;23.98;33.68;101024.69;4247497;27;20047;-47
2023/12/10 06:33:07;;;;;;;7.75;2.40;;;;;;;23.96;33.81;101017.75;4247437;27;20420;-47
2023/12/10 06:35:08;;;;;;;;;;;;;;;23.95;33.53;101027.69;4238051;27;20122;-50
2023/12/10 06:37:10;;;;;;;6.82;1.80;;;;;;;23.91;33.91;101016.31;4248901;27;19919;-50
2023/12/10 06:39:12;;;;;;;6.72;2.03;;;;;;;23.94;33.64;101023.28;4239669;27;20058;-48
2023/12/10 06:41:13;;;;;;;6.32;2.33;;;;;;;23.95;33.68;101021.44;4245545;27;20074;-47
2023/12/10 06:43:15;;;;;;;;;;;;;;;23.96;33.73;101028.50;4247564;27;20044;-49
2023/12/10 06:45:17;;;;;;;5.93;1.75;;;;;;;23.96;33.95;101025.81;4237340;27;19919;-50
2023/12/10 06:47:24;;;;;;;8.30;2.58;;;;;;;24.00;33.42;101027.25;4248890;27;20043;-49
2023/12/10 06:49:25;;;;;;;7.50;2.20;;;;;;;24.04;33.89;101031.38;4240661;27;20061;-48
2023/12/10 06:51:27;;;;;;;6.85;2.10;;;;;;;24.04;33.53;101029.53;4244078;27;20395;-51
2023/12/10 06:53:31;;;;;;;12.43;2.70;;;;;;;24.04;33.77;101018.78;4247197;27;20059;-49
2023/12/10 06:55:33;;;;;;;5.55;2.05;;;;;;;24.04;33.38;101029.53;4237217;27;20513;-51
2023/12/10 06:57:35;;;;;;;7.13;2.10;;;;;;;24.02;33.52;101033.34;4248542;27;20043;-49
2023/12/10 06:59:41;;;;;;;8.00;2.17;;;;;;;23.98;33.95;101037.28;4240849;27;20082;-47
2023/12/10 07:01:43;;;;;;;7.30;1.90;;;;;;;23.97;33.66;101043.66;4243518;27;20126;-48
2023/12/10 07:03:44;;;;;;;;;;;;;;;23.97;33.56;101038.28;4248009;27;20035;-51
2023/12/10 07:05:46;;;;;;;8.85;2.30;;;;;;;23.95;33.58;101030.34;4242866;27;19919;-50
2023/12/10 07:07:48;;;;;;;6.75;2.30;;;;;;;24.00;33.63;101038.84;4231489;28;20585;-49
2023/12/10 07:09:49;;;;;;;;;;;;;;;24.01;33.57;101027.13;4237592;27;20111;-50
2023/12/10 07:11:51;;;;;;;7.13;2.33;;;;;;;24.03;33.83;101041.25;4238211;27;19998;-51
2023/12/10 07:13:53;;;;;;;7.05;1.90;;;;;;;24.04;33.46;101045.66;4231464;27;20142;-48
2023/12/10 07:15:54;;;;;;;8.23;2.10;;;;;;;24.05;33.86;101050.03;4235683;27;20071;-51
2023/12/10 07:17:56;;;;;;;10.63;2.30;;;;;;;23.93;33.72;101032.31;4248643;27;20212;-48
2023/12/10 07:19:58;;;;;;;7.55;2.15;;;;;;;24.00;33.72;101054.09;4243850;27;20043;-49
2023/12/10 07:22:00;;;;;;;;;;;;;;;23.98;33.71;101046.19;4239923;27;20272;-46
2023/12/10 07:24:02;;;;;;;6.72;2.10;;;;;;;23.93;33.81;101051.13;4248144;27;19957;-51
2023/12/10 07:26:04;;;;;;;7.97;2.30;;;;;;;23.97;33.65;101044.47;4235915;27;20040;-50
2023/12/10 07:28:06;;;;;;;8.60;2.17;;;;;;;23.98;33.89;101048.88;4247610;27;20071;-51
2023/12/10 07:30:08;;;;;;;7.50;2.42;;;;;;;24.01;33.35;101053.13;4245470;27;20043;-50
2023/12/10 07:32:10;;;;;;;8.02;2.33;;;;;;;24.03;33.76;101060.06;4237886;27;20142;-50
2023/12/10 07:34:12;;;;;;;7.65;2.38;;;;;;;24.04;33.39;101056.41;4247997;27;20398;-51
2023/12/10 07:36:14;;;;;;;7.88;2.15;;;;;;;24.06;33.71;101058.97;4237447;27;20044;-47
2023/12/10 07:38:15;;;;;;;6.97;2.30;;;;;;;24.06;33.76;101050.91;4245687;27;20047;-47
2023/12/10 07:40:17;;;;;;;7.10;2.33;;;;;;;24.05;33.82;101060.78;4246380;27;20125;-51
2023/12/10 07:42:19;;;;;;;;;;;;;;;24.02;33.43;101050.34;4236983;27;20035;-51
2023/12/10 07:44:20;;;;;;;6.32;1.80;;;;;;;24.00;33.82;101059.47;4247973;27;20006;-52
2023/12/10 07:46:22;;;;;;;6.57;2.22;;;;;;;24.00;33.49;101057.66;4238966;27;20134;-50
2023/12/10 07:48:24;;;;;;;7.85;2.30;;;;;;;24.01;33.81;101062.06;4242592;27;20043;-49
2023/12/10 07:50:27;;;;;;;8.07;2.20;;;;;;;24.00;33.64;101062.16;4246111;27;20120;-49
2023/12/10 07:52:29;;;;;;;7.78;2.20;;;;;;;24.00;33.59;101057.66;4236267;27;20039;-49
2023/12/10 07:54:31;;;;;;;7.90;2.25;;;;;;;24.02;33.33;101057.53;4247507;27;20149;-52
2023/12/10 07:56:34;;;;;;;6.85;2.25;;;;;;;24.03;33.50;101057.38;4240357;27;20131;-49
2023/12/10 07:58:36;;;;;;;;;;;;;;;24.03;33.42;101056.53;4242762;27;20050;-49
2023/12/10 08:00:39;;;;;;;;;;;;;;;24.01;33.84;101051.31;4246402;27;19926;-50
2023/12/10 08:02:41;;;;;;;9.50;2.60;;;;;;;24.01;33.48;101048.63;4235272;27;20022;-49
2023/12/10 08:04:42;;;;;;;7.05;2.10;;;;;;;24.01;33.36;101048.63;4247466;27;20082;-47
2023/12/10 08:06:45;;;;;;;;;;;;;;;24.01;33.71;101045.94;4243267;27;20038;-48
2023/12/10 08:08:47;;;;;;;8.07;2.33;;;;;;;23.99;33.59;101044.38;4236726;27;19966;-51
2023/12/10 08:10:49;;;;;;;7.30;2.53;;;;;;;24.00;33.45;101035.31;4230830;27;20051;-50
2023/12/10 08:12:54;;;;;;;8.15;2.22;;;;;;;24.01;33.61;101037.88;4242106;27;20049;-51
2023/12/10 08:14:56;;;;;;;;;;;;;;;24.02;33.54;101039.59;4231144;28;20480;-50
2023/12/10 08:16:58;;;;;;;8.13;2.92;;;;;;;24.03;33.71;101043.09;4235216;27;19919;-49
2023/12/10 08:19:00;;;;;;;9.43;2.60;;;;;;;24.06;33.47;101024.03;4238214;27;20092;-50
2023/12/10 08:21:02;;;;;;;7.20;2.10;;;;;;;24.08;33.37;101025.59;4230301;28;20050;-51
2023/12/10 08:23:04;;;;;;;9.63;2.35;;;;;;;24.12;33.51;101036.94;4234184;27;20529;-50
2023/12/10 08:25:06;;;;;;;7.85;2.10;;;;;;;24.11;33.26;101029.84;4230495;28;20044;-47
2023/12/10 08:27:08;;;;;;;8.68;2.28;;;;;;;24.12;33.38;101038.75;4233429;27;20112;-50
2023/12/10 08:29:09;;;;;;;6.68;2.00;;;;;;;24.11;33.49;101045.09;4239638;27;20053;-50
2023/12/10 08:31:11;;;;;;;7.85;2.05;;;;;;;24.08;33.38;101048.91;4230174;28;20475;-48
2023/12/10 08:33:13;;;;;;;;;;;;;;;24.06;33.82;101042.84;4241667;27;20512;-49
2023/12/10 08:35:14;;;;;;;8.73;2.83;;;;;;;24.00;33.89;101046.91;4231767;27;19920;-48
2023/12/10 08:37:16;;;;;;;7.68;2.08;;;;;;;24.05;33.81;101050.03;4231788;27;20075;-49
2023/12/10 08:39:18;;;;;;;7.65;2.67;;;;;;;24.07;33.69;101047.22;4240805;27;20110;-51
2023/12/10 08:41:19;;;;;;;;;;;;;;;24.05;33.68;101050.03;4230565;28;20044;-49
2023/12/10 08:43:21;;;;;;;7.72;2.22;;;;;;;24.05;33.82;101043.84;4239473;27;19927;-49
2023/12/10 08:45:23;;;;;;;;;;;;;;;24.05;33.46;101041.16;4233794;27;20540;-48
2023/12/10 08:47:24;;;;;;;7.90;2.53;;;;;;;24.04;33.71;101042.97;4231593;27;20015;-52
2023/12/10 08:49:26;;;;;;;8.00;2.38;;;;;;;24.07;33.38;101047.22;4241474;27;20122;-48
2023/12/10 08:51:28;;;;;;;8.60;2.67;;;;;;;24.06;33.61;101041.00;4229938;28;20040;-51
2023/12/10 08:53:30;;;;;;;;;;;;;;;24.04;33.46;101034.91;4237525;27;20043;-48
2023/12/10 08:55:31;;;;;;;6.57;1.95;;;;;;;23.98;33.60;101038.13;4235071;27;20014;-47
2023/12/10 08:57:33;;;;;;;7.80;2.47;;;;;;;23.99;33.86;101034.47;4231189;28;20505;-50
2023/12/10 08:59:35;;;;;;;8.05;2.75;;;;;;;23.98;33.71;101035.44;4241332;27;20077;-51
2023/12/10 09:01:36;;;;;;;7.90;2.50;;;;;;;24.01;33.75;101029.81;4229999;28;20043;-47
2023/12/10 09:03:42;;;;;;;;;;;;;;;24.04;33.58;101021.47;4235891;28;20066;-48
2023/12/10 09:05:44;;;;;;;8.63;2.78;;;;;;;24.07;33.70;101017.66;4246842;27;20424;-50
2023/12/10 09:07:45;;;;;;;;;;;;;;;24.10;33.80;101003.97;4245940;28;20047;-50
2023/12/10 09:09:47;;;;;;;7.80;2.45;;;;;;;24.11;33.72;101002.13;4234653;28;20033;-50
2023/12/10 09:11:57;;;;;;;9.90;2.55;;;;;;;24.12;33.68;101003.81;4245791;28;20164;-51
2023/12/10 09:13:58;;;;;;;7.85;2.80;;;;;;;24.11;33.69;101005.66;4241321;28;20066;-50
2023/12/10 09:16:00;;;;;;;6.55;2.13;;;;;;;24.09;33.34;101008.47;4243415;27;20040;-50
2023/12/10 09:18:02;;;;;;;8.30;2.90;;;;;;;24.06;33.45;100997.19;4249819;27;20406;-51
2023/12/10 09:20:06;;;;;;;8.60;2.47;;;;;;;24.06;33.81;101006.06;4237651;27;20171;-50
2023/12/10 09:22:07;;;;;;;9.50;2.60;;;;;;;24.05;33.52;100996.31;4250000;27;20122;-51
2023/12/10 09:24:09;;;;;;;9.23;2.83;;;;;;;24.06;33.51;100981.06;4245668;27;20051;-50
2023/12/10 09:26:11;;;;;;;7.57;2.15;;;;;;;24.07;33.51;100988.09;4240824;27;20070;-46
2023/12/10 09:28:13;;;;;;;6.78;2.10;;;;;;;24.11;33.67;100984.19;4248698;27;20051;-47
2023/12/10 09:30:14;;;;;;;;;;;;;;;24.12;33.26;100969.75;4238383;27;20047;-48
2023/12/10 09:32:20;;;;;;;8.68;2.50;;;;;;;24.12;33.46;100967.06;4249740;27;19920;-51
2023/12/10 09:34:22;;;;;;;7.47;2.05;;;;;;;24.13;33.53;100957.16;4246592;27;20051;-47
2023/12/10 09:36:26;;;;;;;8.07;2.45;;;;;;;24.12;33.85;100948.25;4240874;27;20047;-48
2023/12/10 09:38:28;;;;;;;8.77;2.20;;;;;;;24.12;33.18;100958.13;4250272;27;20117;-50
2023/12/10 09:40:33;;;;;;;7.55;2.25;;;;;;;24.09;33.86;100964.63;4238181;27;20039;-48